Main page
METAR-TAF:

METAR-TAF

Airports :

Ibiza Airport

Ibiza, Spain

latitude: 38-52N, longitude: 001-23E, elevation: 7 m

Current weather observation

The report was made 18 minutes ago, at 03:30 UTC
Wind 11 kt from the North
Temperature 20°C
Humidity 64%
Pressure 1024 hPa
Visibility 10 km or more
no clouds below 1500 m and no cumulonimbus

METAR: LEIB 260330Z 01011KT CAVOK 20/13 Q1024 NOSIG

Time: 05:48 (03:48 UTC)

Forecast

The report was made 1 hour and 48 minutes ago, at 02:00 UTC
Forecast valid from 26 at 03 UTC to 27 at 03 UTC
Wind 6 kt from the North/Northeast
Visibility 10 km or more
no clouds below 1500 m and no cumulonimbus
Becoming
from 26 at 06 UTC to 26 at 08 UTC
Wind 12 kt from the East
Becoming
from 26 at 19 UTC to 26 at 21 UTC
Wind 6 kt from the North/Northeast

TAF: LEIB 260200Z 2603/2703 03006KT CAVOK TX26/2612Z TN16/2606Z BECMG 2606/2608 09012KT BECMG 2619/2621 03006KT

Weather observations and forecasts of more than 4000 airports (METAR and TAF reports).

The available stations are represented by yellow and red dots on the map.

Hover mouse over dot to see the name of the station.

Then click to see weather observations and forecasts.

To change the map : click on the green buttons with a black cross to zoom in, on the green button with a dash to zoom out, or on the green arrows for adjacent maps.


METAR-TAF: